sensor_id;sensor_type;location;lat;lon;timestamp;temperature;humidity
14585;DHT22;7379;51.506;11.876;2022-11-20T00:02:17;1.20;62.90
14585;DHT22;7379;51.506;11.876;2022-11-20T00:04:44;1.20;63.00
14585;DHT22;7379;51.506;11.876;2022-11-20T00:07:11;1.20;62.90
14585;DHT22;7379;51.506;11.876;2022-11-20T00:09:37;1.20;62.90
14585;DHT22;7379;51.506;11.876;2022-11-20T00:12:05;1.20;62.90
14585;DHT22;7379;51.506;11.876;2022-11-20T00:14:32;1.10;62.80
14585;DHT22;7379;51.506;11.876;2022-11-20T00:16:58;1.10;62.80
14585;DHT22;7379;51.506;11.876;2022-11-20T00:19:27;1.10;62.90
14585;DHT22;7379;51.506;11.876;2022-11-20T00:21:54;1.10;62.80
14585;DHT22;7379;51.506;11.876;2022-11-20T00:24:21;1.10;62.80
14585;DHT22;7379;51.506;11.876;2022-11-20T00:26:47;1.10;62.90
14585;DHT22;7379;51.506;11.876;2022-11-20T00:29:14;1.10;62.90
14585;DHT22;7379;51.506;11.876;2022-11-20T00:31:41;1.10;62.90
14585;DHT22;7379;51.506;11.876;2022-11-20T00:34:09;1.10;63.00
14585;DHT22;7379;51.506;11.876;2022-11-20T00:36:37;1.10;62.90
14585;DHT22;7379;51.506;11.876;2022-11-20T00:39:04;1.10;63.00
14585;DHT22;7379;51.506;11.876;2022-11-20T00:41:31;1.10;63.00
14585;DHT22;7379;51.506;11.876;2022-11-20T00:43:58;1.10;63.00
14585;DHT22;7379;51.506;11.876;2022-11-20T00:46:26;1.10;62.90
14585;DHT22;7379;51.506;11.876;2022-11-20T00:48:56;1.10;62.90
14585;DHT22;7379;51.506;11.876;2022-11-20T00:51:24;1.10;62.90
14585;DHT22;7379;51.506;11.876;2022-11-20T00:53:55;1.10;63.00
14585;DHT22;7379;51.506;11.876;2022-11-20T00:56:22;1.10;63.00
14585;DHT22;7379;51.506;11.876;2022-11-20T00:58:49;1.10;63.00
14585;DHT22;7379;51.506;11.876;2022-11-20T01:01:18;1.10;63.00
14585;DHT22;7379;51.506;11.876;2022-11-20T01:03:46;1.00;62.90
14585;DHT22;7379;51.506;11.876;2022-11-20T01:06:16;1.00;62.90
14585;DHT22;7379;51.506;11.876;2022-11-20T01:08:43;1.00;62.90
14585;DHT22;7379;51.506;11.876;2022-11-20T01:11:14;1.00;62.90
14585;DHT22;7379;51.506;11.876;2022-11-20T01:13:41;1.00;62.90
14585;DHT22;7379;51.506;11.876;2022-11-20T01:16:10;1.00;62.90
14585;DHT22;7379;51.506;11.876;2022-11-20T01:18:39;1.00;63.00
14585;DHT22;7379;51.506;11.876;2022-11-20T01:21:08;1.00;63.00
14585;DHT22;7379;51.506;11.876;2022-11-20T01:23:37;1.00;62.90
14585;DHT22;7379;51.506;11.876;2022-11-20T01:26:07;1.00;63.00
14585;DHT22;7379;51.506;11.876;2022-11-20T01:28:35;1.00;63.00
14585;DHT22;7379;51.506;11.876;2022-11-20T01:31:11;1.00;63.00
14585;DHT22;7379;51.506;11.876;2022-11-20T01:33:39;1.00;63.00
14585;DHT22;7379;51.506;11.876;2022-11-20T01:36:07;1.00;63.00
14585;DHT22;7379;51.506;11.876;2022-11-20T01:38:34;1.00;63.00
14585;DHT22;7379;51.506;11.876;2022-11-20T01:41:01;1.00;63.00
14585;DHT22;7379;51.506;11.876;2022-11-20T01:43:28;1.00;63.00
14585;DHT22;7379;51.506;11.876;2022-11-20T01:46:13;1.00;63.00
14585;DHT22;7379;51.506;11.876;2022-11-20T01:48:48;1.00;63.00
14585;DHT22;7379;51.506;11.876;2022-11-20T01:51:20;1.00;63.00
14585;DHT22;7379;51.506;11.876;2022-11-20T01:53:52;0.90;62.90
14585;DHT22;7379;51.506;11.876;2022-11-20T01:56:19;0.90;62.90
14585;DHT22;7379;51.506;11.876;2022-11-20T01:58:50;0.90;62.90
14585;DHT22;7379;51.506;11.876;2022-11-20T02:01:20;0.90;62.90
14585;DHT22;7379;51.506;11.876;2022-11-20T02:03:48;0.90;62.90
14585;DHT22;7379;51.506;11.876;2022-11-20T02:06:21;0.90;62.90
14585;DHT22;7379;51.506;11.876;2022-11-20T02:08:50;0.90;62.90
14585;DHT22;7379;51.506;11.876;2022-11-20T02:11:17;0.90;62.90
14585;DHT22;7379;51.506;11.876;2022-11-20T02:13:44;0.90;63.00
14585;DHT22;7379;51.506;11.876;2022-11-20T02:16:17;0.90;62.90
14585;DHT22;7379;51.506;11.876;2022-11-20T02:18:47;0.90;63.00
14585;DHT22;7379;51.506;11.876;2022-11-20T02:21:24;0.90;62.90
14585;DHT22;7379;51.506;11.876;2022-11-20T02:24:06;0.90;63.00
14585;DHT22;7379;51.506;11.876;2022-11-20T02:26:38;0.90;63.00
14585;DHT22;7379;51.506;11.876;2022-11-20T02:29:05;0.80;62.90
14585;DHT22;7379;51.506;11.876;2022-11-20T02:31:37;0.80;63.00
14585;DHT22;7379;51.506;11.876;2022-11-20T02:34:04;0.80;62.90
14585;DHT22;7379;51.506;11.876;2022-11-20T02:36:32;0.80;62.90
14585;DHT22;7379;51.506;11.876;2022-11-20T02:39:02;0.80;62.90
14585;DHT22;7379;51.506;11.876;2022-11-20T02:41:33;0.80;62.90
14585;DHT22;7379;51.506;11.876;2022-11-20T02:44:01;0.80;62.90
14585;DHT22;7379;51.506;11.876;2022-11-20T02:46:28;0.80;63.60
14585;DHT22;7379;51.506;11.876;2022-11-20T02:48:55;0.80;62.90
14585;DHT22;7379;51.506;11.876;2022-11-20T02:51:22;0.80;62.90
14585;DHT22;7379;51.506;11.876;2022-11-20T02:53:49;0.80;62.90
14585;DHT22;7379;51.506;11.876;2022-11-20T02:56:17;0.80;63.00
14585;DHT22;7379;51.506;11.876;2022-11-20T02:58:44;0.80;62.90
14585;DHT22;7379;51.506;11.876;2022-11-20T03:01:11;0.80;62.90
14585;DHT22;7379;51.506;11.876;2022-11-20T03:03:38;0.80;62.90
14585;DHT22;7379;51.506;11.876;2022-11-20T03:06:05;0.80;62.90
14585;DHT22;7379;51.506;11.876;2022-11-20T03:08:33;0.80;63.00
14585;DHT22;7379;51.506;11.876;2022-11-20T03:11:02;0.80;62.90
14585;DHT22;7379;51.506;11.876;2022-11-20T03:13:31;0.80;62.90
14585;DHT22;7379;51.506;11.876;2022-11-20T03:15:58;0.80;62.90
14585;DHT22;7379;51.506;11.876;2022-11-20T03:18:27;0.70;62.90
14585;DHT22;7379;51.506;11.876;2022-11-20T03:20:57;0.70;63.00
14585;DHT22;7379;51.506;11.876;2022-11-20T03:23:24;0.70;62.80
14585;DHT22;7379;51.506;11.876;2022-11-20T03:25:51;0.70;62.80
14585;DHT22;7379;51.506;11.876;2022-11-20T03:28:18;0.70;63.10
14585;DHT22;7379;51.506;11.876;2022-11-20T03:30:46;0.70;62.90
14585;DHT22;7379;51.506;11.876;2022-11-20T03:33:13;0.70;62.90
14585;DHT22;7379;51.506;11.876;2022-11-20T03:35:39;0.70;62.80
14585;DHT22;7379;51.506;11.876;2022-11-20T03:38:07;0.70;62.90
14585;DHT22;7379;51.506;11.876;2022-11-20T03:40:34;0.70;62.80
14585;DHT22;7379;51.506;11.876;2022-11-20T03:43:01;0.70;63.50
14585;DHT22;7379;51.506;11.876;2022-11-20T03:45:28;0.70;62.70
14585;DHT22;7379;51.506;11.876;2022-11-20T03:47:56;0.70;62.70
14585;DHT22;7379;51.506;11.876;2022-11-20T03:50:23;0.70;63.50
14585;DHT22;7379;51.506;11.876;2022-11-20T03:52:49;0.70;62.70
14585;DHT22;7379;51.506;11.876;2022-11-20T03:55:16;0.70;62.70
14585;DHT22;7379;51.506;11.876;2022-11-20T03:57:43;0.70;62.70
14585;DHT22;7379;51.506;11.876;2022-11-20T04:00:11;0.70;62.70
14585;DHT22;7379;51.506;11.876;2022-11-20T04:02:38;0.60;62.60
14585;DHT22;7379;51.506;11.876;2022-11-20T04:05:07;0.60;62.60
14585;DHT22;7379;51.506;11.876;2022-11-20T04:07:34;0.60;62.60
14585;DHT22;7379;51.506;11.876;2022-11-20T04:10:01;0.60;62.60
14585;DHT22;7379;51.506;11.876;2022-11-20T04:12:31;0.60;62.60
14585;DHT22;7379;51.506;11.876;2022-11-20T04:14:58;0.60;62.60
14585;DHT22;7379;51.506;11.876;2022-11-20T04:17:25;0.60;62.60
14585;DHT22;7379;51.506;11.876;2022-11-20T04:19:52;0.60;62.50
14585;DHT22;7379;51.506;11.876;2022-11-20T04:22:20;0.60;62.50
14585;DHT22;7379;51.506;11.876;2022-11-20T04:24:47;0.60;62.50
14585;DHT22;7379;51.506;11.876;2022-11-20T04:27:13;0.60;62.50
14585;DHT22;7379;51.506;11.876;2022-11-20T04:29:40;0.60;62.50
14585;DHT22;7379;51.506;11.876;2022-11-20T04:32:07;0.60;62.50
14585;DHT22;7379;51.506;11.876;2022-11-20T04:34:34;0.60;62.50
14585;DHT22;7379;51.506;11.876;2022-11-20T04:37:01;0.60;62.50
14585;DHT22;7379;51.506;11.876;2022-11-20T04:39:29;0.60;62.50
14585;DHT22;7379;51.506;11.876;2022-11-20T04:41:55;0.60;62.50
14585;DHT22;7379;51.506;11.876;2022-11-20T04:44:36;0.60;62.50
14585;DHT22;7379;51.506;11.876;2022-11-20T04:47:03;0.60;62.50
14585;DHT22;7379;51.506;11.876;2022-11-20T04:49:30;0.60;62.50
14585;DHT22;7379;51.506;11.876;2022-11-20T04:51:57;0.50;62.30
14585;DHT22;7379;51.506;11.876;2022-11-20T04:54:24;0.50;62.30
14585;DHT22;7379;51.506;11.876;2022-11-20T04:56:52;0.60;62.40
14585;DHT22;7379;51.506;11.876;2022-11-20T04:59:19;0.50;62.30
14585;DHT22;7379;51.506;11.876;2022-11-20T05:01:45;0.50;62.30
14585;DHT22;7379;51.506;11.876;2022-11-20T05:04:12;0.50;62.30
14585;DHT22;7379;51.506;11.876;2022-11-20T05:06:39;0.50;62.30
14585;DHT22;7379;51.506;11.876;2022-11-20T05:09:06;0.50;62.30
14585;DHT22;7379;51.506;11.876;2022-11-20T05:11:33;0.50;62.20
14585;DHT22;7379;51.506;11.876;2022-11-20T05:14:01;0.50;62.30
14585;DHT22;7379;51.506;11.876;2022-11-20T05:16:27;0.50;62.30
14585;DHT22;7379;51.506;11.876;2022-11-20T05:18:55;0.50;62.30
14585;DHT22;7379;51.506;11.876;2022-11-20T05:21:22;0.50;62.30
14585;DHT22;7379;51.506;11.876;2022-11-20T05:23:49;0.50;62.30
14585;DHT22;7379;51.506;11.876;2022-11-20T05:26:17;0.50;62.30
14585;DHT22;7379;51.506;11.876;2022-11-20T05:28:45;0.50;62.30
14585;DHT22;7379;51.506;11.876;2022-11-20T05:31:15;0.50;62.30
14585;DHT22;7379;51.506;11.876;2022-11-20T05:33:44;0.50;62.30
14585;DHT22;7379;51.506;11.876;2022-11-20T05:36:12;0.40;62.20
14585;DHT22;7379;51.506;11.876;2022-11-20T05:38:39;0.40;62.20
14585;DHT22;7379;51.506;11.876;2022-11-20T05:41:08;0.40;62.20
14585;DHT22;7379;51.506;11.876;2022-11-20T05:43:36;0.40;62.20
14585;DHT22;7379;51.506;11.876;2022-11-20T05:46:04;0.40;62.20
14585;DHT22;7379;51.506;11.876;2022-11-20T05:48:33;0.40;62.30
14585;DHT22;7379;51.506;11.876;2022-11-20T05:51:02;0.40;62.30
14585;DHT22;7379;51.506;11.876;2022-11-20T05:53:29;0.40;62.30
14585;DHT22;7379;51.506;11.876;2022-11-20T05:55:57;0.40;62.30
14585;DHT22;7379;51.506;11.876;2022-11-20T05:58:24;0.40;62.20
14585;DHT22;7379;51.506;11.876;2022-11-20T06:00:51;0.40;62.20
14585;DHT22;7379;51.506;11.876;2022-11-20T06:03:18;0.40;62.20
14585;DHT22;7379;51.506;11.876;2022-11-20T06:05:46;0.40;62.20
14585;DHT22;7379;51.506;11.876;2022-11-20T06:08:13;0.40;62.20
14585;DHT22;7379;51.506;11.876;2022-11-20T06:10:40;0.40;62.10
14585;DHT22;7379;51.506;11.876;2022-11-20T06:13:06;0.40;62.10
14585;DHT22;7379;51.506;11.876;2022-11-20T06:15:33;0.40;62.10
14585;DHT22;7379;51.506;11.876;2022-11-20T06:18:00;0.40;62.00
14585;DHT22;7379;51.506;11.876;2022-11-20T06:20:27;0.40;62.00
14585;DHT22;7379;51.506;11.876;2022-11-20T06:22:55;0.40;62.00
14585;DHT22;7379;51.506;11.876;2022-11-20T06:25:21;0.30;61.90
14585;DHT22;7379;51.506;11.876;2022-11-20T06:27:48;0.30;61.90
14585;DHT22;7379;51.506;11.876;2022-11-20T06:30:15;0.30;61.90
14585;DHT22;7379;51.506;11.876;2022-11-20T06:32:42;0.30;62.00
14585;DHT22;7379;51.506;11.876;2022-11-20T06:35:09;0.30;61.90
14585;DHT22;7379;51.506;11.876;2022-11-20T06:37:36;0.30;62.00
14585;DHT22;7379;51.506;11.876;2022-11-20T06:40:06;0.30;61.90
14585;DHT22;7379;51.506;11.876;2022-11-20T06:42:33;0.30;61.90
14585;DHT22;7379;51.506;11.876;2022-11-20T06:45:00;0.30;61.90
14585;DHT22;7379;51.506;11.876;2022-11-20T06:47:26;0.30;61.90
14585;DHT22;7379;51.506;11.876;2022-11-20T06:49:53;0.30;61.90
14585;DHT22;7379;51.506;11.876;2022-11-20T06:52:20;0.30;61.90
14585;DHT22;7379;51.506;11.876;2022-11-20T06:54:47;0.20;61.80
14585;DHT22;7379;51.506;11.876;2022-11-20T06:57:15;0.30;61.90
14585;DHT22;7379;51.506;11.876;2022-11-20T06:59:42;0.30;62.00
14585;DHT22;7379;51.506;11.876;2022-11-20T07:02:09;0.30;62.70
14585;DHT22;7379;51.506;11.876;2022-11-20T07:04:37;0.20;61.80
14585;DHT22;7379;51.506;11.876;2022-11-20T07:07:03;0.30;61.90
14585;DHT22;7379;51.506;11.876;2022-11-20T07:09:31;0.20;61.80
14585;DHT22;7379;51.506;11.876;2022-11-20T07:11:58;0.20;61.80
14585;DHT22;7379;51.506;11.876;2022-11-20T07:14:26;0.20;61.80
14585;DHT22;7379;51.506;11.876;2022-11-20T07:16:53;0.20;61.80
14585;DHT22;7379;51.506;11.876;2022-11-20T07:19:19;0.20;61.80
14585;DHT22;7379;51.506;11.876;2022-11-20T07:21:46;0.20;61.80
14585;DHT22;7379;51.506;11.876;2022-11-20T07:24:13;0.20;61.80
14585;DHT22;7379;51.506;11.876;2022-11-20T07:26:40;0.20;61.70
14585;DHT22;7379;51.506;11.876;2022-11-20T07:29:06;0.20;61.80
14585;DHT22;7379;51.506;11.876;2022-11-20T07:31:36;0.20;61.80
14585;DHT22;7379;51.506;11.876;2022-11-20T07:34:03;0.20;61.80
14585;DHT22;7379;51.506;11.876;2022-11-20T07:36:29;0.20;61.80
14585;DHT22;7379;51.506;11.876;2022-11-20T07:38:56;0.20;61.80
14585;DHT22;7379;51.506;11.876;2022-11-20T07:41:23;0.20;61.80
14585;DHT22;7379;51.506;11.876;2022-11-20T07:43:50;0.10;61.80
14585;DHT22;7379;51.506;11.876;2022-11-20T07:46:17;0.10;61.80
14585;DHT22;7379;51.506;11.876;2022-11-20T07:48:45;0.10;61.80
14585;DHT22;7379;51.506;11.876;2022-11-20T07:51:11;0.10;61.80
14585;DHT22;7379;51.506;11.876;2022-11-20T07:53:39;0.10;61.80
14585;DHT22;7379;51.506;11.876;2022-11-20T07:56:06;0.10;61.80
14585;DHT22;7379;51.506;11.876;2022-11-20T07:58:33;0.10;61.90
14585;DHT22;7379;51.506;11.876;2022-11-20T08:01:03;0.10;61.90
14585;DHT22;7379;51.506;11.876;2022-11-20T08:03:29;0.10;61.90
14585;DHT22;7379;51.506;11.876;2022-11-20T08:05:59;0.10;61.90
14585;DHT22;7379;51.506;11.876;2022-11-20T08:08:27;0.10;61.90
14585;DHT22;7379;51.506;11.876;2022-11-20T08:10:54;0.10;62.00
14585;DHT22;7379;51.506;11.876;2022-11-20T08:13:41;0.10;62.00
14585;DHT22;7379;51.506;11.876;2022-11-20T08:16:25;0.10;62.10
14585;DHT22;7379;51.506;11.876;2022-11-20T08:18:52;0.10;62.20
14585;DHT22;7379;51.506;11.876;2022-11-20T08:21:20;0.10;62.30
14585;DHT22;7379;51.506;11.876;2022-11-20T08:23:47;0.10;62.30
14585;DHT22;7379;51.506;11.876;2022-11-20T08:26:14;0.10;62.40
14585;DHT22;7379;51.506;11.876;2022-11-20T08:28:41;0.10;62.40
14585;DHT22;7379;51.506;11.876;2022-11-20T08:31:09;0.10;62.50
14585;DHT22;7379;51.506;11.876;2022-11-20T08:33:36;0.10;62.50
14585;DHT22;7379;51.506;11.876;2022-11-20T08:36:04;0.10;62.60
14585;DHT22;7379;51.506;11.876;2022-11-20T08:38:33;0.10;62.60
14585;DHT22;7379;51.506;11.876;2022-11-20T08:41:00;0.10;62.60
14585;DHT22;7379;51.506;11.876;2022-11-20T08:43:44;0.10;62.60
14585;DHT22;7379;51.506;11.876;2022-11-20T08:46:12;0.10;62.60
14585;DHT22;7379;51.506;11.876;2022-11-20T08:48:39;0.10;62.70
14585;DHT22;7379;51.506;11.876;2022-11-20T08:51:06;0.10;62.70
14585;DHT22;7379;51.506;11.876;2022-11-20T08:53:34;0.10;62.80
14585;DHT22;7379;51.506;11.876;2022-11-20T08:56:01;0.10;62.80
14585;DHT22;7379;51.506;11.876;2022-11-20T08:58:28;0.10;62.80
14585;DHT22;7379;51.506;11.876;2022-11-20T09:00:54;0.10;62.90
14585;DHT22;7379;51.506;11.876;2022-11-20T09:03:21;0.10;62.90
14585;DHT22;7379;51.506;11.876;2022-11-20T09:05:48;0.10;62.90
14585;DHT22;7379;51.506;11.876;2022-11-20T09:08:16;0.10;62.90
14585;DHT22;7379;51.506;11.876;2022-11-20T09:10:44;0.10;63.00
14585;DHT22;7379;51.506;11.876;2022-11-20T09:13:10;0.10;63.00
14585;DHT22;7379;51.506;11.876;2022-11-20T09:15:37;0.10;63.00
14585;DHT22;7379;51.506;11.876;2022-11-20T09:18:04;0.10;63.00
14585;DHT22;7379;51.506;11.876;2022-11-20T09:20:31;0.10;63.00
14585;DHT22;7379;51.506;11.876;2022-11-20T09:22:58;0.10;63.10
14585;DHT22;7379;51.506;11.876;2022-11-20T09:25:25;0.10;63.20
14585;DHT22;7379;51.506;11.876;2022-11-20T09:27:56;0.10;63.10
14585;DHT22;7379;51.506;11.876;2022-11-20T09:30:24;0.10;63.20
14585;DHT22;7379;51.506;11.876;2022-11-20T09:32:51;0.10;63.20
14585;DHT22;7379;51.506;11.876;2022-11-20T09:35:18;0.10;63.30
14585;DHT22;7379;51.506;11.876;2022-11-20T09:37:44;0.10;63.30
14585;DHT22;7379;51.506;11.876;2022-11-20T09:40:19;0.10;63.30
14585;DHT22;7379;51.506;11.876;2022-11-20T09:42:51;0.10;63.30
14585;DHT22;7379;51.506;11.876;2022-11-20T09:45:39;0.10;63.40
14585;DHT22;7379;51.506;11.876;2022-11-20T09:48:20;0.10;63.40
14585;DHT22;7379;51.506;11.876;2022-11-20T09:50:56;0.10;63.40
14585;DHT22;7379;51.506;11.876;2022-11-20T09:53:33;0.10;63.40
14585;DHT22;7379;51.506;11.876;2022-11-20T09:56:01;0.10;63.40
14585;DHT22;7379;51.506;11.876;2022-11-20T09:58:32;0.10;63.50
14585;DHT22;7379;51.506;11.876;2022-11-20T10:01:10;0.10;63.50
14585;DHT22;7379;51.506;11.876;2022-11-20T10:03:44;0.10;63.50
14585;DHT22;7379;51.506;11.876;2022-11-20T10:06:17;0.10;63.60
14585;DHT22;7379;51.506;11.876;2022-11-20T10:08:50;0.10;63.50
14585;DHT22;7379;51.506;11.876;2022-11-20T10:11:23;0.10;63.50
14585;DHT22;7379;51.506;11.876;2022-11-20T10:13:59;0.10;64.30
14585;DHT22;7379;51.506;11.876;2022-11-20T10:16:37;0.10;63.60
14585;DHT22;7379;51.506;11.876;2022-11-20T10:19:20;0.10;64.30
14585;DHT22;7379;51.506;11.876;2022-11-20T10:21:57;0.10;63.60
14585;DHT22;7379;51.506;11.876;2022-11-20T10:24:44;0.10;63.60
14585;DHT22;7379;51.506;11.876;2022-11-20T10:27:34;0.10;63.70
14585;DHT22;7379;51.506;11.876;2022-11-20T10:33:31;0.10;63.60
14585;DHT22;7379;51.506;11.876;2022-11-20T10:36:07;0.20;63.70
14585;DHT22;7379;51.506;11.876;2022-11-20T10:38:41;0.10;63.60
14585;DHT22;7379;51.506;11.876;2022-11-20T10:41:14;0.20;63.70
14585;DHT22;7379;51.506;11.876;2022-11-20T10:44:00;0.20;63.70
14585;DHT22;7379;51.506;11.876;2022-11-20T10:46:34;0.10;63.70
14585;DHT22;7379;51.506;11.876;2022-11-20T10:49:12;0.20;63.80
14585;DHT22;7379;51.506;11.876;2022-11-20T10:51:47;0.20;63.80
14585;DHT22;7379;51.506;11.876;2022-11-20T10:54:24;0.20;63.80
14585;DHT22;7379;51.506;11.876;2022-11-20T10:56:58;0.20;63.80
14585;DHT22;7379;51.506;11.876;2022-11-20T10:59:45;0.20;63.80
14585;DHT22;7379;51.506;11.876;2022-11-20T11:02:16;0.20;63.80
14585;DHT22;7379;51.506;11.876;2022-11-20T11:04:46;0.20;63.80
14585;DHT22;7379;51.506;11.876;2022-11-20T11:07:16;0.20;63.80
14585;DHT22;7379;51.506;11.876;2022-11-20T11:09:47;0.20;63.80
14585;DHT22;7379;51.506;11.876;2022-11-20T11:12:14;0.20;63.80
14585;DHT22;7379;51.506;11.876;2022-11-20T11:14:45;0.20;63.80
14585;DHT22;7379;51.506;11.876;2022-11-20T11:17:33;0.20;63.80
14585;DHT22;7379;51.506;11.876;2022-11-20T11:20:05;0.20;63.80
14585;DHT22;7379;51.506;11.876;2022-11-20T11:22:34;0.20;63.80
14585;DHT22;7379;51.506;11.876;2022-11-20T11:25:01;0.20;63.80
14585;DHT22;7379;51.506;11.876;2022-11-20T11:27:28;0.20;63.80
14585;DHT22;7379;51.506;11.876;2022-11-20T11:30:10;0.20;64.60
14585;DHT22;7379;51.506;11.876;2022-11-20T11:32:37;0.30;63.90
14585;DHT22;7379;51.506;11.876;2022-11-20T11:35:18;0.30;63.90
14585;DHT22;7379;51.506;11.876;2022-11-20T11:37:45;0.30;63.90
14585;DHT22;7379;51.506;11.876;2022-11-20T11:40:15;0.30;63.90
14585;DHT22;7379;51.506;11.876;2022-11-20T11:42:43;0.30;63.90
14585;DHT22;7379;51.506;11.876;2022-11-20T11:45:14;0.30;63.90
14585;DHT22;7379;51.506;11.876;2022-11-20T11:47:45;0.30;63.90
14585;DHT22;7379;51.506;11.876;2022-11-20T11:50:19;0.30;63.90
14585;DHT22;7379;51.506;11.876;2022-11-20T11:52:59;0.30;63.90
14585;DHT22;7379;51.506;11.876;2022-11-20T11:55:33;0.30;63.90
14585;DHT22;7379;51.506;11.876;2022-11-20T11:58:11;0.30;63.90
14585;DHT22;7379;51.506;11.876;2022-11-20T12:00:45;0.30;63.90
14585;DHT22;7379;51.506;11.876;2022-11-20T12:03:18;0.40;64.00
14585;DHT22;7379;51.506;11.876;2022-11-20T12:05:50;0.40;64.00
14585;DHT22;7379;51.506;11.876;2022-11-20T12:08:24;0.40;64.00
14585;DHT22;7379;51.506;11.876;2022-11-20T12:10:57;0.40;64.60
14585;DHT22;7379;51.506;11.876;2022-11-20T12:13:39;0.40;64.80
14585;DHT22;7379;51.506;11.876;2022-11-20T12:16:12;0.40;64.60
14585;DHT22;7379;51.506;11.876;2022-11-20T12:18:40;0.40;64.60
14585;DHT22;7379;51.506;11.876;2022-11-20T12:21:19;0.40;64.40
14585;DHT22;7379;51.506;11.876;2022-11-20T12:23:57;0.40;64.40
14585;DHT22;7379;51.506;11.876;2022-11-20T12:26:44;0.40;64.40
14585;DHT22;7379;51.506;11.876;2022-11-20T12:29:21;0.40;64.30
14585;DHT22;7379;51.506;11.876;2022-11-20T12:32:06;0.40;64.30
14585;DHT22;7379;51.506;11.876;2022-11-20T12:34:49;0.40;64.30
14585;DHT22;7379;51.506;11.876;2022-11-20T12:37:29;0.50;64.30
14585;DHT22;7379;51.506;11.876;2022-11-20T12:40:02;0.50;64.40
14585;DHT22;7379;51.506;11.876;2022-11-20T12:42:42;0.50;64.30
14585;DHT22;7379;51.506;11.876;2022-11-20T12:45:51;0.50;64.10
14585;DHT22;7379;51.506;11.876;2022-11-20T12:48:36;0.50;64.10
14585;DHT22;7379;51.506;11.876;2022-11-20T12:51:18;0.60;64.30
14585;DHT22;7379;51.506;11.876;2022-11-20T12:54:00;0.60;64.20
14585;DHT22;7379;51.506;11.876;2022-11-20T12:56:37;0.60;64.20
14585;DHT22;7379;51.506;11.876;2022-11-20T12:59:23;0.60;64.10
14585;DHT22;7379;51.506;11.876;2022-11-20T13:01:57;0.60;64.20
14585;DHT22;7379;51.506;11.876;2022-11-20T13:07:29;0.60;64.20
14585;DHT22;7379;51.506;11.876;2022-11-20T13:09:59;0.60;64.20
14585;DHT22;7379;51.506;11.876;2022-11-20T13:12:33;0.60;64.20
14585;DHT22;7379;51.506;11.876;2022-11-20T13:15:07;0.60;64.30
14585;DHT22;7379;51.506;11.876;2022-11-20T13:17:40;0.60;64.30
14585;DHT22;7379;51.506;11.876;2022-11-20T13:20:15;0.60;64.30
14585;DHT22;7379;51.506;11.876;2022-11-20T13:22:44;0.60;64.30
14585;DHT22;7379;51.506;11.876;2022-11-20T13:25:24;0.60;64.40
14585;DHT22;7379;51.506;11.876;2022-11-20T13:27:51;0.60;65.10
14585;DHT22;7379;51.506;11.876;2022-11-20T13:30:19;0.60;64.40
14585;DHT22;7379;51.506;11.876;2022-11-20T13:32:54;0.60;64.40
14585;DHT22;7379;51.506;11.876;2022-11-20T13:35:28;0.60;64.40
14585;DHT22;7379;51.506;11.876;2022-11-20T13:38:07;0.60;64.40
14585;DHT22;7379;51.506;11.876;2022-11-20T13:40:38;0.70;64.50
14585;DHT22;7379;51.506;11.876;2022-11-20T13:43:14;0.70;64.50
14585;DHT22;7379;51.506;11.876;2022-11-20T13:45:42;0.70;64.50
14585;DHT22;7379;51.506;11.876;2022-11-20T13:48:20;0.70;64.50
14585;DHT22;7379;51.506;11.876;2022-11-20T13:50:57;0.70;64.50
14585;DHT22;7379;51.506;11.876;2022-11-20T13:53:37;0.70;64.50
14585;DHT22;7379;51.506;11.876;2022-11-20T13:56:17;0.70;65.20
14585;DHT22;7379;51.506;11.876;2022-11-20T13:58:55;0.70;64.40
14585;DHT22;7379;51.506;11.876;2022-11-20T14:01:27;0.70;64.40
14585;DHT22;7379;51.506;11.876;2022-11-20T14:04:07;0.70;64.40
14585;DHT22;7379;51.506;11.876;2022-11-20T14:06:40;0.70;64.50
14585;DHT22;7379;51.506;11.876;2022-11-20T14:09:11;0.70;64.40
14585;DHT22;7379;51.506;11.876;2022-11-20T14:11:46;0.70;64.40
14585;DHT22;7379;51.506;11.876;2022-11-20T14:14:15;0.70;64.50
14585;DHT22;7379;51.506;11.876;2022-11-20T14:16:42;0.70;64.50
14585;DHT22;7379;51.506;11.876;2022-11-20T14:19:25;0.70;64.50
14585;DHT22;7379;51.506;11.876;2022-11-20T14:21:55;0.70;64.50
14585;DHT22;7379;51.506;11.876;2022-11-20T14:24:32;0.70;64.50
14585;DHT22;7379;51.506;11.876;2022-11-20T14:27:01;0.70;64.60
14585;DHT22;7379;51.506;11.876;2022-11-20T14:29:29;0.70;64.60
14585;DHT22;7379;51.506;11.876;2022-11-20T14:31:59;0.70;64.60
14585;DHT22;7379;51.506;11.876;2022-11-20T14:34:31;0.70;64.60
14585;DHT22;7379;51.506;11.876;2022-11-20T14:36:59;0.70;64.60
14585;DHT22;7379;51.506;11.876;2022-11-20T14:39:30;0.70;64.60
14585;DHT22;7379;51.506;11.876;2022-11-20T14:41:58;0.70;64.60
14585;DHT22;7379;51.506;11.876;2022-11-20T14:44:30;0.70;64.60
14585;DHT22;7379;51.506;11.876;2022-11-20T14:47:00;0.70;64.60
14585;DHT22;7379;51.506;11.876;2022-11-20T14:49:30;0.70;64.70
14585;DHT22;7379;51.506;11.876;2022-11-20T14:52:02;0.70;64.70
14585;DHT22;7379;51.506;11.876;2022-11-20T14:54:29;0.70;64.70
14585;DHT22;7379;51.506;11.876;2022-11-20T14:56:58;0.70;64.70
14585;DHT22;7379;51.506;11.876;2022-11-20T14:59:27;0.70;64.70
14585;DHT22;7379;51.506;11.876;2022-11-20T15:01:56;0.70;64.80
14585;DHT22;7379;51.506;11.876;2022-11-20T15:04:23;0.70;64.80
14585;DHT22;7379;51.506;11.876;2022-11-20T15:06:51;0.70;64.80
14585;DHT22;7379;51.506;11.876;2022-11-20T15:09:18;0.70;64.80
14585;DHT22;7379;51.506;11.876;2022-11-20T15:11:53;0.70;64.80
14585;DHT22;7379;51.506;11.876;2022-11-20T15:14:20;0.70;64.80
14585;DHT22;7379;51.506;11.876;2022-11-20T15:16:49;0.70;64.80
14585;DHT22;7379;51.506;11.876;2022-11-20T15:19:18;0.70;64.80
14585;DHT22;7379;51.506;11.876;2022-11-20T15:21:45;0.70;64.80
14585;DHT22;7379;51.506;11.876;2022-11-20T15:24:12;0.70;64.80
14585;DHT22;7379;51.506;11.876;2022-11-20T15:26:39;0.70;64.80
14585;DHT22;7379;51.506;11.876;2022-11-20T15:29:08;0.70;64.80
14585;DHT22;7379;51.506;11.876;2022-11-20T15:31:36;0.70;64.80
14585;DHT22;7379;51.506;11.876;2022-11-20T15:34:10;0.70;64.80
14585;DHT22;7379;51.506;11.876;2022-11-20T15:36:37;0.70;64.80
14585;DHT22;7379;51.506;11.876;2022-11-20T15:39:04;0.70;64.80
14585;DHT22;7379;51.506;11.876;2022-11-20T15:41:33;0.70;64.80
14585;DHT22;7379;51.506;11.876;2022-11-20T15:44:00;0.70;64.80
14585;DHT22;7379;51.506;11.876;2022-11-20T15:46:28;0.70;64.80
14585;DHT22;7379;51.506;11.876;2022-11-20T15:48:56;0.70;64.80
14585;DHT22;7379;51.506;11.876;2022-11-20T15:51:27;0.80;64.90
14585;DHT22;7379;51.506;11.876;2022-11-20T15:53:54;0.80;64.90
14585;DHT22;7379;51.506;11.876;2022-11-20T15:56:21;0.80;64.90
14585;DHT22;7379;51.506;11.876;2022-11-20T15:58:48;0.70;64.80
14585;DHT22;7379;51.506;11.876;2022-11-20T16:01:17;0.80;64.90
14585;DHT22;7379;51.506;11.876;2022-11-20T16:03:44;0.80;64.90
14585;DHT22;7379;51.506;11.876;2022-11-20T16:06:11;0.80;64.90
14585;DHT22;7379;51.506;11.876;2022-11-20T16:08:39;0.70;64.80
14585;DHT22;7379;51.506;11.876;2022-11-20T16:11:06;0.70;64.90